createdAt,value
2023-01-13T00:01:11.578Z,89.33
2023-01-13T00:03:38.576Z,89.50
2023-01-13T00:06:06.342Z,86.33
2023-01-13T00:08:33.497Z,87.06
2023-01-13T00:11:00.353Z,88.89
2023-01-13T00:13:26.923Z,87.18
2023-01-13T00:16:01.023Z,86.14
2023-01-13T00:18:28.267Z,89.49
2023-01-13T00:21:03.015Z,93.15
2023-01-13T00:23:31.794Z,87.02
2023-01-13T00:26:00.533Z,86.59
2023-01-13T00:28:27.026Z,89.21
2023-01-13T00:30:53.794Z,86.28
2023-01-13T00:33:20.542Z,87.03
2023-01-13T00:35:57.012Z,93.42
2023-01-13T00:38:23.762Z,86.33
2023-01-13T00:41:07.973Z,84.43
2023-01-13T00:43:36.171Z,86.79
2023-01-13T00:46:04.362Z,89.62
2023-01-13T00:48:32.516Z,86.50
2023-01-13T00:51:02.045Z,87.05
2023-01-13T00:53:29.704Z,86.44
2023-01-13T00:56:04.677Z,87.05
2023-01-13T00:58:33.112Z,85.07
2023-01-13T01:01:04.770Z,87.21
2023-01-13T01:03:31.428Z,87.93
2023-01-13T01:06:04.473Z,89.76
2023-01-13T01:08:31.016Z,83.97
2023-01-13T01:11:05.630Z,88.72
2023-01-13T01:13:32.428Z,87.49
2023-01-13T01:15:59.424Z,87.18
2023-01-13T01:18:26.212Z,86.38
2023-01-13T01:20:52.677Z,88.31
2023-01-13T01:23:19.215Z,85.21
2023-01-13T01:25:45.707Z,86.48
2023-01-13T01:28:12.319Z,85.03
2023-01-13T01:30:39.631Z,89.28
2023-01-13T01:33:06.387Z,87.75
2023-01-13T01:35:32.869Z,86.94
2023-01-13T01:37:59.408Z,87.62
2023-01-13T01:40:27.043Z,84.65
2023-01-13T01:43:12.256Z,87.59
2023-01-13T01:45:38.767Z,86.62
2023-01-13T01:48:07.161Z,82.92
2023-01-13T01:50:35.106Z,85.38
2023-01-13T01:53:14.217Z,86.01
2023-01-13T01:55:41.292Z,89.00
2023-01-13T01:58:13.137Z,87.75
2023-01-13T02:00:42.182Z,86.15
2023-01-13T02:03:10.012Z,87.00
2023-01-13T02:05:36.602Z,84.76
2023-01-13T02:08:03.957Z,89.19
2023-01-13T02:10:32.267Z,91.35
2023-01-13T02:13:06.250Z,92.63
2023-01-13T02:15:48.245Z,84.72
2023-01-13T02:18:20.826Z,89.65
2023-01-13T02:21:10.894Z,93.16
2023-01-13T02:24:17.985Z,89.88
2023-01-13T02:27:11.635Z,83.34
2023-01-13T02:30:15.915Z,91.32
2023-01-13T02:32:45.658Z,89.01
2023-01-13T02:35:30.474Z,92.95
2023-01-13T02:38:00.557Z,87.68
2023-01-13T02:40:39.125Z,85.81
2023-01-13T02:43:31.107Z,88.36
2023-01-13T02:46:05.076Z,85.84
2023-01-13T02:48:32.325Z,90.28
2023-01-13T02:51:10.097Z,87.58
2023-01-13T02:54:02.583Z,81.79
2023-01-13T02:56:30.473Z,86.52
2023-01-13T02:58:59.539Z,88.75
2023-01-13T03:01:26.391Z,83.25
2023-01-13T03:03:52.951Z,87.40
2023-01-13T03:06:39.225Z,84.98
2023-01-13T03:09:19.390Z,93.93
2023-01-13T03:12:04.448Z,92.31
2023-01-13T03:14:43.753Z,88.37
2023-01-13T03:17:19.171Z,85.91
2023-01-13T03:20:11.909Z,84.94
2023-01-13T03:22:48.700Z,86.23
2023-01-13T03:25:26.208Z,86.64
2023-01-13T03:28:02.346Z,87.74
2023-01-13T03:30:44.766Z,89.67
2023-01-13T03:33:23.904Z,93.30
2023-01-13T03:35:54.421Z,88.25
2023-01-13T03:38:28.464Z,83.75
2023-01-13T03:40:58.831Z,87.30
2023-01-13T03:43:52.954Z,89.95
2023-01-13T03:46:29.689Z,91.40
2023-01-13T03:49:00.120Z,86.36
2023-01-13T03:51:30.062Z,85.78
2023-01-13T03:54:00.705Z,86.64
2023-01-13T03:56:50.010Z,86.02
2023-01-13T03:59:26.748Z,89.28
2023-01-13T04:01:59.447Z,89.51
2023-01-13T04:04:28.861Z,85.53
2023-01-13T04:07:02.534Z,88.89
2023-01-13T04:09:45.711Z,86.27
2023-01-13T04:12:23.297Z,89.24
2023-01-13T04:14:50.675Z,85.96
2023-01-13T04:17:18.191Z,84.38
2023-01-13T04:19:44.780Z,85.49
2023-01-13T04:22:11.578Z,85.16
2023-01-13T04:24:38.216Z,82.31
2023-01-13T04:27:04.731Z,84.34
2023-01-13T04:29:31.387Z,84.28
2023-01-13T04:31:57.970Z,83.73
2023-01-13T04:34:25.834Z,82.48
2023-01-13T04:36:54.108Z,84.29
2023-01-13T04:39:20.816Z,83.94
2023-01-13T04:41:59.633Z,84.08
2023-01-13T04:44:26.666Z,83.41
2023-01-13T04:46:53.830Z,80.08
2023-01-13T04:49:20.541Z,81.36
2023-01-13T04:51:47.149Z,81.40
2023-01-13T04:54:13.807Z,81.59
2023-01-13T04:56:40.389Z,82.78
2023-01-13T04:59:06.891Z,82.69
2023-01-13T05:01:33.540Z,82.32
2023-01-13T05:04:03.243Z,81.60
2023-01-13T05:06:29.989Z,80.91
2023-01-13T05:08:57.209Z,81.57
2023-01-13T05:11:42.324Z,80.66
2023-01-13T05:14:27.659Z,79.07
2023-01-13T05:17:03.503Z,79.53
2023-01-13T05:19:32.552Z,82.25
2023-01-13T05:22:19.195Z,79.58
2023-01-13T05:25:04.443Z,80.91
2023-01-13T05:27:32.041Z,82.04
2023-01-13T05:29:58.676Z,77.51
2023-01-13T05:32:28.018Z,79.36
2023-01-13T05:34:55.949Z,77.46
2023-01-13T05:37:23.995Z,79.36
2023-01-13T05:40:09.127Z,78.79
2023-01-13T05:42:54.288Z,80.37
2023-01-13T05:45:20.924Z,79.38
2023-01-13T05:47:47.486Z,79.56
2023-01-13T05:50:14.074Z,80.71
2023-01-13T05:52:40.655Z,81.90
2023-01-13T05:55:07.631Z,79.36
2023-01-13T05:57:34.104Z,82.33
2023-01-13T06:00:00.631Z,80.98
2023-01-13T06:02:27.238Z,79.68
2023-01-13T06:04:53.850Z,81.37
2023-01-13T06:07:20.495Z,81.83
2023-01-13T06:09:47.168Z,82.58
2023-01-13T06:12:14.413Z,81.42
2023-01-13T06:14:41.020Z,81.36
2023-01-13T06:17:12.342Z,80.94
2023-01-13T06:19:39.633Z,81.42
2023-01-13T06:22:15.377Z,85.23
2023-01-13T06:24:48.719Z,77.95
2023-01-13T06:27:15.531Z,81.50
2023-01-13T06:29:42.164Z,82.07
2023-01-13T06:32:21.718Z,79.94
2023-01-13T06:34:54.149Z,79.29
2023-01-13T06:37:25.438Z,80.66
2023-01-13T06:39:58.646Z,80.08
2023-01-13T06:42:50.283Z,83.97
2023-01-13T06:45:17.353Z,79.12
2023-01-13T06:47:44.190Z,80.78
2023-01-13T06:50:11.360Z,81.80
2023-01-13T06:52:37.908Z,80.10
2023-01-13T06:55:04.775Z,80.82
2023-01-13T06:57:31.240Z,81.82
2023-01-13T06:59:57.852Z,81.75
2023-01-13T07:02:24.404Z,79.87
2023-01-13T07:04:50.941Z,81.53
2023-01-13T07:07:17.440Z,81.97
2023-01-13T07:09:44.025Z,82.13
2023-01-13T07:12:11.769Z,77.56
2023-01-13T07:14:56.936Z,80.26
2023-01-13T07:17:25.559Z,80.49
2023-01-13T07:19:53.265Z,80.28
2023-01-13T07:22:19.848Z,78.06
2023-01-13T07:24:46.457Z,81.12
2023-01-13T07:27:13.156Z,81.44
2023-01-13T07:29:40.027Z,80.85
2023-01-13T07:32:08.002Z,82.07
2023-01-13T07:34:34.568Z,81.94
2023-01-13T07:37:01.663Z,79.01
2023-01-13T07:39:28.338Z,79.29
2023-01-13T07:42:13.314Z,79.61
2023-01-13T07:44:40.107Z,80.50
2023-01-13T07:47:08.627Z,82.57
2023-01-13T07:49:35.172Z,80.25
2023-01-13T07:52:02.202Z,79.86
2023-01-13T07:54:40.234Z,78.95
2023-01-13T07:57:08.080Z,82.68
2023-01-13T07:59:34.642Z,80.58
2023-01-13T08:02:01.259Z,81.48
2023-01-13T08:04:28.103Z,79.45
2023-01-13T08:06:54.720Z,82.01
2023-01-13T08:09:21.248Z,83.12
2023-01-13T08:12:07.932Z,82.54
2023-01-13T08:14:34.428Z,82.32
2023-01-13T08:17:00.885Z,81.71
2023-01-13T08:19:27.550Z,80.64
2023-01-13T08:21:54.016Z,81.35
2023-01-13T08:24:20.503Z,82.66
2023-01-13T08:26:47.067Z,83.30
2023-01-13T08:29:15.006Z,81.21
2023-01-13T08:31:41.744Z,82.95
2023-01-13T08:34:08.281Z,81.60
2023-01-13T08:36:34.983Z,81.21
2023-01-13T08:39:01.588Z,82.17
2023-01-13T08:41:46.958Z,80.01
2023-01-13T08:44:13.444Z,82.21
2023-01-13T08:46:41.941Z,81.65
2023-01-13T08:49:08.632Z,81.80
2023-01-13T08:51:35.357Z,81.35
2023-01-13T08:54:02.305Z,81.16
2023-01-13T08:56:35.180Z,82.22
2023-01-13T08:59:02.096Z,81.02
2023-01-13T09:01:29.010Z,79.25
2023-01-13T09:03:55.920Z,77.99
2023-01-13T09:06:22.823Z,80.45
2023-01-13T09:08:49.796Z,79.40
2023-01-13T09:11:44.740Z,81.12
2023-01-13T09:14:11.271Z,77.48
2023-01-13T09:16:37.793Z,79.60
2023-01-13T09:19:04.397Z,79.85
2023-01-13T09:21:31.022Z,79.98
2023-01-13T09:23:57.499Z,78.48
2023-01-13T09:26:24.017Z,79.38
2023-01-13T09:28:50.539Z,79.47
2023-01-13T09:31:17.254Z,78.81
2023-01-13T09:34:02.513Z,78.70
2023-01-13T09:36:29.035Z,79.54
2023-01-13T09:38:55.733Z,78.46
2023-01-13T09:41:44.202Z,79.61
2023-01-13T09:44:27.000Z,79.23
2023-01-13T09:47:00.591Z,80.35
2023-01-13T09:49:37.674Z,76.24
2023-01-13T09:52:12.074Z,77.18
2023-01-13T09:54:44.378Z,80.12
2023-01-13T09:57:13.479Z,80.03
2023-01-13T09:59:40.762Z,79.70
2023-01-13T10:02:28.566Z,79.53
2023-01-13T10:05:26.767Z,77.00
2023-01-13T10:07:59.482Z,76.76
2023-01-13T10:10:46.860Z,84.02
2023-01-13T10:13:20.125Z,80.02
2023-01-13T10:15:56.517Z,73.31
2023-01-13T10:18:33.206Z,78.79
2023-01-13T10:21:07.425Z,75.67
2023-01-13T10:24:01.527Z,78.76
2023-01-13T10:26:31.084Z,79.51
2023-01-13T10:28:58.268Z,77.72
2023-01-13T10:31:25.550Z,77.37
2023-01-13T10:34:06.191Z,74.06
2023-01-13T10:36:33.805Z,77.27
2023-01-13T10:39:15.853Z,72.50
2023-01-13T10:41:44.070Z,75.20
2023-01-13T10:44:16.363Z,77.20
2023-01-13T10:46:57.797Z,81.78
2023-01-13T10:49:36.557Z,75.64
2023-01-13T10:52:23.592Z,76.33
2023-01-13T10:54:54.425Z,79.25
2023-01-13T10:57:26.955Z,76.87
2023-01-13T10:59:54.878Z,76.24
2023-01-13T11:02:32.418Z,75.86
2023-01-13T11:05:16.180Z,77.06
2023-01-13T11:07:52.473Z,73.22
2023-01-13T11:10:24.206Z,76.35
2023-01-13T11:12:59.873Z,71.67
2023-01-13T11:15:57.654Z,79.54
2023-01-13T11:19:02.172Z,75.08
2023-01-13T11:21:36.829Z,75.58
2023-01-13T11:24:19.443Z,71.59
2023-01-13T11:27:20.280Z,67.42
2023-01-13T11:30:03.073Z,72.67
2023-01-13T11:32:37.255Z,70.69
2023-01-13T11:35:15.983Z,71.64
2023-01-13T11:37:47.746Z,76.18
2023-01-13T11:40:32.843Z,72.33
2023-01-13T11:44:04.365Z,70.92
2023-01-13T11:46:32.947Z,71.69
2023-01-13T11:49:00.934Z,72.99
2023-01-13T11:51:46.756Z,70.52
2023-01-13T11:54:34.241Z,68.78
2023-01-13T11:57:09.801Z,69.96
2023-01-13T12:00:02.537Z,70.35
2023-01-13T12:02:48.770Z,72.44
2023-01-13T12:05:23.912Z,71.96
2023-01-13T12:08:02.627Z,73.01
2023-01-13T12:10:59.683Z,76.29
2023-01-13T12:13:46.952Z,70.72
2023-01-13T12:16:31.622Z,68.75
2023-01-13T12:19:18.551Z,69.96
2023-01-13T12:22:07.886Z,67.83
2023-01-13T12:25:05.418Z,70.15
2023-01-13T12:27:47.827Z,72.26
2023-01-13T12:30:22.596Z,73.44
2023-01-13T12:32:52.037Z,67.57
2023-01-13T12:35:40.198Z,65.59
2023-01-13T12:38:35.962Z,75.17
2023-01-13T12:41:38.788Z,63.90
2023-01-13T12:44:17.175Z,72.82
2023-01-13T12:46:56.217Z,70.05
2023-01-13T12:49:25.770Z,73.15
2023-01-13T12:51:52.509Z,69.29
2023-01-13T12:54:51.329Z,70.43
2023-01-13T12:57:24.137Z,69.37
2023-01-13T12:59:59.591Z,69.61
2023-01-13T13:02:28.145Z,70.24
2023-01-13T13:04:58.811Z,72.12
2023-01-13T13:07:40.381Z,71.18
2023-01-13T13:10:30.187Z,70.82
2023-01-13T13:13:18.069Z,68.02
2023-01-13T13:15:47.364Z,67.67
2023-01-13T13:18:16.907Z,67.00
2023-01-13T13:21:10.174Z,69.01
2023-01-13T13:23:47.776Z,69.43
2023-01-13T13:26:14.301Z,65.23
2023-01-13T13:28:48.912Z,67.32
2023-01-13T13:31:20.507Z,67.17
2023-01-13T13:34:14.485Z,72.13
2023-01-13T13:36:56.167Z,68.41
2023-01-13T13:39:51.559Z,65.08
2023-01-13T13:42:57.336Z,67.97
2023-01-13T13:45:45.041Z,66.20
2023-01-13T13:48:30.617Z,68.43
2023-01-13T13:51:03.984Z,65.54
2023-01-13T13:53:35.083Z,64.26
2023-01-13T13:56:08.145Z,64.10
2023-01-13T13:58:37.034Z,67.15
2023-01-13T14:01:05.366Z,66.97
2023-01-13T14:03:35.175Z,66.23
2023-01-13T14:06:04.577Z,66.91
2023-01-13T14:08:34.997Z,63.94
2023-01-13T14:11:01.914Z,66.04
2023-01-13T14:13:31.753Z,66.30
2023-01-13T14:16:02.964Z,62.13
2023-01-13T14:18:32.907Z,65.38
2023-01-13T14:21:19.610Z,65.16
2023-01-13T14:24:01.856Z,61.89
2023-01-13T14:26:31.361Z,64.86
2023-01-13T14:29:00.991Z,64.71
2023-01-13T14:31:28.234Z,64.67
2023-01-13T14:33:57.713Z,63.50
2023-01-13T14:36:33.849Z,65.09
2023-01-13T14:39:03.466Z,64.81
2023-01-13T14:41:35.079Z,61.06
2023-01-13T14:44:08.266Z,64.17
2023-01-13T14:46:38.753Z,61.00
2023-01-13T14:49:05.759Z,61.80
2023-01-13T14:51:32.351Z,61.69
2023-01-13T14:53:59.728Z,60.58
2023-01-13T14:56:42.700Z,62.86
2023-01-13T14:59:39.962Z,62.63
2023-01-13T15:02:25.024Z,62.78
2023-01-13T15:04:58.697Z,61.92
2023-01-13T15:07:28.176Z,62.62
2023-01-13T15:10:04.768Z,60.24
2023-01-13T15:12:39.264Z,62.10
2023-01-13T15:15:20.263Z,62.86
2023-01-13T15:17:47.245Z,62.01
2023-01-13T15:20:15.559Z,62.30
2023-01-13T15:22:42.162Z,62.25
2023-01-13T15:25:11.706Z,62.42
2023-01-13T15:27:38.884Z,61.81
2023-01-13T15:30:25.854Z,63.70
2023-01-13T15:32:57.877Z,60.17
2023-01-13T15:35:27.560Z,61.72
2023-01-13T15:37:56.336Z,62.81
2023-01-13T15:40:25.937Z,62.76
2023-01-13T15:43:10.706Z,60.67
2023-01-13T15:45:56.333Z,62.98
2023-01-13T15:48:24.928Z,62.07
2023-01-13T15:50:54.720Z,63.59
2023-01-13T15:53:21.534Z,63.83
2023-01-13T15:55:52.164Z,63.18
2023-01-13T15:58:21.257Z,64.26
2023-01-13T16:00:47.843Z,62.86
2023-01-13T16:03:15.418Z,64.08
2023-01-13T16:05:43.443Z,63.39
2023-01-13T16:08:18.212Z,64.12
2023-01-13T16:10:45.630Z,63.31
2023-01-13T16:13:12.905Z,63.28
2023-01-13T16:15:45.938Z,64.43
2023-01-13T16:18:26.161Z,64.54
2023-01-13T16:20:55.184Z,63.63
2023-01-13T16:23:22.773Z,64.05
2023-01-13T16:25:51.405Z,65.16
2023-01-13T16:28:24.348Z,64.32
2023-01-13T16:30:54.133Z,64.68
2023-01-13T16:33:20.637Z,64.44
2023-01-13T16:36:10.529Z,64.96
2023-01-13T16:38:33.876Z,65.05
2023-01-13T16:41:00.673Z,65.31
2023-01-13T16:43:27.814Z,65.69
2023-01-13T16:45:54.572Z,66.13
2023-01-13T16:48:22.988Z,65.96
2023-01-13T16:50:49.764Z,66.51
2023-01-13T16:53:16.598Z,66.05
2023-01-13T16:55:43.885Z,66.32
2023-01-13T16:58:19.688Z,66.90
2023-01-13T17:00:47.630Z,66.96
2023-01-13T17:03:15.935Z,65.89
2023-01-13T17:05:44.718Z,67.63
2023-01-13T17:08:18.017Z,67.14
2023-01-13T17:10:48.083Z,67.33
2023-01-13T17:13:16.784Z,66.05
2023-01-13T17:15:45.316Z,66.05
2023-01-13T17:18:13.623Z,67.19
2023-01-13T17:20:40.718Z,67.35
2023-01-13T17:23:07.420Z,67.01
2023-01-13T17:25:34.096Z,66.62
2023-01-13T17:28:00.812Z,67.27
2023-01-13T17:30:27.450Z,67.31
2023-01-13T17:32:54.037Z,67.31
2023-01-13T17:35:24.718Z,67.08
2023-01-13T17:37:54.511Z,68.09
2023-01-13T17:40:21.167Z,66.97
2023-01-13T17:42:47.663Z,67.77
2023-01-13T17:45:14.479Z,67.86
2023-01-13T17:47:41.130Z,68.20
2023-01-13T17:50:08.282Z,67.78
2023-01-13T17:52:34.948Z,67.90
2023-01-13T17:55:01.472Z,68.33
2023-01-13T17:57:28.367Z,67.74
2023-01-13T17:59:55.008Z,68.71
2023-01-13T18:02:24.596Z,69.08
2023-01-13T18:04:51.379Z,68.12
2023-01-13T18:07:17.892Z,68.62
2023-01-13T18:09:44.429Z,68.89
2023-01-13T18:12:11.628Z,69.48
2023-01-13T18:14:38.206Z,69.05
2023-01-13T18:17:04.768Z,69.10
2023-01-13T18:19:49.922Z,68.87
2023-01-13T18:22:34.727Z,69.43
2023-01-13T18:25:21.857Z,69.39
2023-01-13T18:27:48.950Z,69.49
2023-01-13T18:30:15.981Z,69.77
2023-01-13T18:32:42.553Z,69.36
2023-01-13T18:35:10.496Z,69.62
2023-01-13T18:37:40.107Z,69.90
2023-01-13T18:40:10.036Z,70.28
2023-01-13T18:42:56.483Z,70.35
2023-01-13T18:45:31.765Z,71.19
2023-01-13T18:48:00.746Z,70.53
2023-01-13T18:50:28.345Z,70.34
2023-01-13T18:52:55.621Z,70.97
2023-01-13T18:55:22.594Z,71.37
2023-01-13T18:57:49.637Z,70.91
2023-01-13T19:00:19.277Z,70.67
2023-01-13T19:02:47.445Z,71.11
2023-01-13T19:05:14.485Z,71.28
2023-01-13T19:07:41.287Z,70.88
2023-01-13T19:10:09.816Z,70.95
2023-01-13T19:12:36.726Z,71.44
2023-01-13T19:15:03.625Z,71.62
2023-01-13T19:17:33.355Z,71.91
2023-01-13T19:20:01.356Z,71.48
2023-01-13T19:22:34.952Z,72.11
2023-01-13T19:25:03.178Z,71.24
2023-01-13T19:27:30.484Z,71.48
2023-01-13T19:30:03.613Z,71.92
2023-01-13T19:32:32.591Z,71.87
2023-01-13T19:34:59.565Z,71.61
2023-01-13T19:37:32.854Z,71.74
2023-01-13T19:39:59.552Z,70.99
2023-01-13T19:42:45.811Z,71.30
2023-01-13T19:45:29.341Z,72.28
2023-01-13T19:47:57.427Z,71.90
2023-01-13T19:50:24.782Z,71.90
2023-01-13T19:52:51.606Z,72.38
2023-01-13T19:55:19.823Z,72.04
2023-01-13T19:57:46.512Z,72.50
2023-01-13T20:00:16.930Z,72.30
2023-01-13T20:02:49.083Z,72.25
2023-01-13T20:05:25.866Z,73.06
2023-01-13T20:07:53.160Z,72.60
2023-01-13T20:10:21.349Z,72.20
2023-01-13T20:12:48.118Z,72.38
2023-01-13T20:15:14.961Z,72.54
2023-01-13T20:17:41.792Z,72.08
2023-01-13T20:20:10.078Z,72.56
2023-01-13T20:22:39.248Z,72.66
2023-01-13T20:25:06.245Z,72.30
2023-01-13T20:27:32.926Z,72.64
2023-01-13T20:29:59.575Z,72.92
2023-01-13T20:32:26.234Z,72.13
2023-01-13T20:34:52.800Z,72.74
2023-01-13T20:37:19.339Z,73.49
2023-01-13T20:39:46.904Z,72.85
2023-01-13T20:42:32.947Z,73.33
2023-01-13T20:45:00.262Z,73.54
2023-01-13T20:47:28.200Z,72.97
2023-01-13T20:49:54.881Z,73.39
2023-01-13T20:52:21.431Z,73.49
2023-01-13T20:54:48.022Z,73.51
2023-01-13T20:57:14.645Z,73.67
2023-01-13T20:59:41.294Z,73.78
2023-01-13T21:02:13.183Z,73.78
2023-01-13T21:04:40.071Z,73.78
2023-01-13T21:07:07.259Z,73.73
2023-01-13T21:09:33.870Z,73.81
2023-01-13T21:12:18.969Z,73.97
2023-01-13T21:15:04.321Z,74.14
2023-01-13T21:17:49.451Z,73.95
2023-01-13T21:20:16.276Z,74.39
2023-01-13T21:22:48.301Z,74.16
2023-01-13T21:25:16.579Z,74.48
2023-01-13T21:27:46.011Z,74.54
2023-01-13T21:30:17.802Z,74.27
2023-01-13T21:32:45.323Z,74.52
2023-01-13T21:35:13.555Z,74.55
2023-01-13T21:37:42.053Z,74.83
2023-01-13T21:40:10.194Z,73.98
2023-01-13T21:42:55.422Z,74.32
2023-01-13T21:45:40.536Z,74.62
2023-01-13T21:48:07.224Z,74.48
2023-01-13T21:50:34.098Z,74.72
2023-01-13T21:53:01.695Z,74.71
2023-01-13T21:55:28.425Z,74.86
2023-01-13T21:57:59.375Z,74.60
2023-01-13T22:00:29.505Z,75.26
2023-01-13T22:02:56.601Z,75.26
2023-01-13T22:05:24.749Z,75.69
2023-01-13T22:07:51.715Z,75.08
2023-01-13T22:10:24.224Z,75.46
2023-01-13T22:13:00.331Z,75.76
2023-01-13T22:15:29.018Z,75.45
2023-01-13T22:17:56.747Z,76.25
2023-01-13T22:20:23.686Z,75.36
2023-01-13T22:22:50.451Z,75.94
2023-01-13T22:25:19.990Z,75.75
2023-01-13T22:27:48.198Z,76.63
2023-01-13T22:30:18.322Z,75.88
2023-01-13T22:32:45.590Z,75.93
2023-01-13T22:35:14.241Z,76.42
2023-01-13T22:37:41.503Z,76.86
2023-01-13T22:40:13.320Z,76.04
2023-01-13T22:42:41.556Z,76.22
2023-01-13T22:45:11.232Z,76.42
2023-01-13T22:47:38.987Z,76.45
2023-01-13T22:50:07.079Z,76.27
2023-01-13T22:52:35.059Z,76.45
2023-01-13T22:55:01.839Z,76.21
2023-01-13T22:57:36.433Z,76.52
2023-01-13T23:00:14.855Z,76.79
2023-01-13T23:02:41.542Z,76.46
2023-01-13T23:05:08.812Z,76.96
2023-01-13T23:07:36.096Z,76.55
2023-01-13T23:10:03.978Z,77.10
2023-01-13T23:12:30.622Z,76.82
2023-01-13T23:14:57.179Z,77.21
2023-01-13T23:17:23.665Z,77.18
2023-01-13T23:19:50.172Z,76.95
2023-01-13T23:22:16.827Z,77.37
2023-01-13T23:24:43.269Z,77.31
2023-01-13T23:27:09.843Z,78.40
2023-01-13T23:29:36.680Z,77.86
2023-01-13T23:32:05.743Z,77.57
2023-01-13T23:34:32.309Z,77.95
2023-01-13T23:36:58.882Z,78.06
2023-01-13T23:39:25.479Z,79.24
2023-01-13T23:41:52.041Z,78.70
2023-01-13T23:44:18.539Z,78.07
2023-01-13T23:46:45.054Z,78.40
2023-01-13T23:49:11.578Z,78.23
2023-01-13T23:51:38.201Z,78.56
2023-01-13T23:54:05.257Z,77.96
2023-01-13T23:56:31.859Z,78.75
2023-01-13T23:58:59.069Z,78.79
